Airfield :
LOGIN :

Register | Disclaimer

   EN    FR    IT 

 










Legend :    VFR   Marginal VFR   IFR   Intensive IFR   Very Intensive IFR
Visi :
Ceiling :
>= 8 km
>= 3000ft
5 to 8 km
1000 to 3000 ft
1500m to 5 km
500 to 1000 ft
800 to 1500m
200 to 500 ft
< 800m
< 200 ft
Symbols :   Thunderstorms  Fog  Heavy snow  Heavy precipitations  Wind > 20 kt
SIGMETs :     Misc.  Thunderstorms  Icing  Turbulence  Mountain Waves  Volcanic Ashes






- Airport Elevation : 76 ft
- IATA code : KID


ESMK - Kristianstad

CURRENT METAR :
  • 271720Z 22007KT 3600 -RA BR OVC003 05/05 Q1003

EXPIRED METARs :
  • 271650Z 21007KT 7000 OVC005 05/05 Q1003
  • 271620Z 20009KT 7000 OVC005 05/05 Q1003
  • 271550Z 22006KT 9999 OVC008 05/05 Q1003
  • 271520Z 21006KT 9000 OVC009 05/04 Q1003
  • 271450Z 21008KT 7000 OVC009 05/04 Q1003

TAF TAF ESMK
Valid from the 27 at 18:00 until the 27 at 20:00 UTC


271700Z 2718/2720 20010KT 6000 BKN007
TEMPO 2718/2720 2500 BR BKN002



MET'MAP, your aeronautical weather chart ! - Copyright ORBIFLY December 2007 - Disclaimer

ORBIFLY MET'MAP TEAM :

Programming & Development : Alexandra Zaïnal
Concept & original design : Baudouin d'Aumeries
Assistance for programming : Marc-Olivier Méhu
Technical & hardware support : Manuel Goepfert

Contact : metmap@orbifly.com




SOURCES & CREDITS :

   NOAA